Time;durP1;ratioP1;P1;durP2;ratioP2;P2;SDS_P1;SDS_P2;PMS_P1;PMS_P2;Temp;Humidity;BMP_temperature;BMP_pressure;BME280_temperature;BME280_humidity;BME280_pressure;Samples;Min_cycle;Max_cycle;Signal;HPM_P1;HPM_P2
2022/06/08 00:01:51;;;;;;;1.75;0.70;;;15.40;99.90;;;;;;5031687;28;20206;-60
2022/06/08 00:04:22;;;;;;;0.73;0.60;;;15.20;99.90;;;;;;5050553;28;20212;-60
2022/06/08 00:06:48;;;;;;;2.58;0.68;;;15.30;99.90;;;;;;5051401;28;20181;-60
2022/06/08 00:09:14;;;;;;;1.15;0.75;;;15.30;99.90;;;;;;5050850;28;20768;-60
2022/06/08 00:11:40;;;;;;;4.45;0.82;;;15.20;99.90;;;;;;5051135;28;20225;-59
2022/06/08 00:14:05;;;;;;;3.22;0.80;;;15.20;99.90;;;;;;5051166;28;20173;-59
2022/06/08 00:16:32;;;;;;;1.95;0.80;;;15.20;99.90;;;;;;5045839;28;20651;-60
2022/06/08 00:18:57;;;;;;;2.38;0.60;;;15.20;99.90;;;;;;5050561;28;20181;-59
2022/06/08 00:21:23;;;;;;;1.63;0.80;;;15.20;99.90;;;;;;5050858;28;20212;-59
2022/06/08 00:23:49;;;;;;;2.13;0.63;;;15.20;99.90;;;;;;5051113;28;20188;-61
2022/06/08 00:26:15;;;;;;;4.80;0.60;;;15.20;99.90;;;;;;5051064;28;20181;-61
2022/06/08 00:28:41;;;;;;;2.35;0.45;;;15.20;99.90;;;;;;5050765;28;20173;-61
2022/06/08 00:31:07;;;;;;;1.95;0.60;;;15.20;99.90;;;;;;5050917;28;20609;-61
2022/06/08 00:33:33;;;;;;;1.48;0.50;;;15.30;99.90;;;;;;5050978;28;20181;-61
2022/06/08 00:35:58;;;;;;;1.15;0.70;;;15.20;99.90;;;;;;5050844;28;20179;-61
2022/06/08 00:38:24;;;;;;;1.25;0.60;;;15.20;99.90;;;;;;5050886;28;20256;-61
2022/06/08 00:41:14;;;;;;;0.55;0.50;;;12.80;99.90;;;;;;5032996;28;20173;-62
2022/06/08 00:43:40;;;;;;;1.50;0.55;;;15.20;99.90;;;;;;5050733;28;20188;-61
2022/06/08 00:46:08;;;;;;;0.63;0.43;;;15.30;99.90;;;;;;5049966;28;20551;-61
2022/06/08 00:48:38;;;;;;;0.80;0.65;;;15.30;99.90;;;;;;5050288;28;20183;-55
2022/06/08 00:51:04;;;;;;;0.65;0.40;;;15.30;99.90;;;;;;5058483;28;20611;-55
2022/06/08 00:53:55;;;;;;;1.63;0.52;;;15.30;99.90;;;;;;5070606;28;20176;-56
2022/06/08 00:56:27;;;;;;;2.88;0.50;;;15.30;99.90;;;;;;5050416;28;20181;-55
2022/06/08 00:58:53;;;;;;;0.57;0.43;;;15.40;99.90;;;;;;5030753;28;20238;-55
2022/06/08 01:01:19;;;;;;;0.32;0.30;;;15.30;99.90;;;;;;5035944;28;20204;-55
2022/06/08 01:03:45;;;;;;;1.23;0.32;;;15.30;99.90;;;;;;5050231;28;20528;-56
2022/06/08 01:06:17;;;;;;;1.08;0.50;;;15.30;99.90;;;;;;5050152;28;20181;-54
2022/06/08 01:08:50;;;;;;;1.40;0.47;;;15.40;99.90;;;;;;5050610;28;20196;-55
2022/06/08 01:11:20;;;;;;;2.15;0.40;;;15.40;99.90;;;;;;5050603;28;20192;-55
2022/06/08 01:13:46;;;;;;;2.05;0.50;;;15.30;99.90;;;;;;5050550;28;20251;-55
2022/06/08 01:16:12;;;;;;;1.17;0.47;;;15.40;99.90;;;;;;5050188;28;20193;-55
2022/06/08 01:18:38;;;;;;;0.20;0.20;;;15.50;99.90;;;;;;5049914;28;20199;-55
2022/06/08 01:21:22;;;;;;;2.72;0.68;;;15.40;99.90;;;;;;5049960;28;20208;-55
2022/06/08 01:23:51;;;;;;;2.22;0.57;;;15.50;99.90;;;;;;5050347;28;20169;-55
2022/06/08 01:26:42;;;;;;;0.73;0.50;;;15.40;99.90;;;;;;5050116;28;20758;-55
2022/06/08 01:29:37;;;;;;;1.35;0.55;;;15.30;99.90;;;;;;5041396;28;20283;-55
2022/06/08 01:32:34;;;;;;;0.82;0.40;;;15.50;99.90;;;;;;5050370;28;20671;-56
2022/06/08 01:35:03;;;;;;;2.38;0.43;;;15.50;99.90;;;;;;5049677;28;20640;-56
2022/06/08 01:37:56;;;;;;;0.80;0.50;;;15.50;99.90;;;;;;5050453;28;20346;-55
2022/06/08 01:40:31;;;;;;;2.08;0.43;;;15.70;99.90;;;;;;5050211;28;20166;-55
2022/06/08 01:43:25;;;;;;;1.58;0.68;;;15.50;99.90;;;;;;5050215;28;20350;-55
2022/06/08 01:46:24;;;;;;;0.90;0.60;;;15.50;99.90;;;;;;5049892;28;20346;-56
2022/06/08 01:48:59;;;;;;;2.03;0.60;;;15.50;99.90;;;;;;5034916;28;20260;-55
2022/06/08 01:51:53;;;;;;;1.08;0.60;;;15.60;99.90;;;;;;5049468;28;20262;-55
2022/06/08 01:54:43;;;;;;;2.55;0.90;;;15.60;99.90;;;;;;5049851;28;20169;-55
2022/06/08 01:57:14;;;;;;;3.92;0.90;;;15.60;99.90;;;;;;5051298;28;20251;-56
2022/06/08 01:59:47;;;;;;;2.30;1.00;;;15.50;99.90;;;;;;5063419;28;20169;-56
2022/06/08 02:02:47;;;;;;;4.15;1.10;;;15.40;99.90;;;;;;5061179;28;20201;-56
2022/06/08 02:05:31;;;;;;;4.72;1.55;;;15.40;99.90;;;;;;5053585;28;20383;-56
2022/06/08 02:08:05;;;;;;;3.33;1.27;;;15.30;99.90;;;;;;5053761;28;20173;-57
2022/06/08 02:10:49;;;;;;;7.32;1.40;;;15.20;99.90;;;;;;5053722;28;20251;-56
2022/06/08 02:13:29;;;;;;;8.75;1.60;;;15.20;99.90;;;;;;5053094;28;20195;-56
2022/06/08 02:16:03;;;;;;;9.68;1.27;;;15.20;99.90;;;;;;5052837;28;20181;-56
2022/06/08 02:18:48;;;;;;;8.45;2.00;;;15.20;99.90;;;;;;5050827;28;20185;-56
2022/06/08 02:21:20;;;;;;;6.03;1.13;;;15.30;99.90;;;;;;5052705;28;20212;-56
2022/06/08 02:23:52;;;;;;;7.35;1.35;;;15.20;99.90;;;;;;5053438;28;20197;-56
2022/06/08 02:26:26;;;;;;;8.05;1.75;;;15.20;99.90;;;;;;5053192;28;20718;-56
2022/06/08 02:29:01;;;;;;;8.45;1.50;;;15.30;99.90;;;;;;5052976;28;20180;-56
2022/06/08 02:31:35;;;;;;;6.78;1.80;;;15.20;99.90;;;;;;5053236;28;20197;-56
2022/06/08 02:37:00;;;;;;;7.10;1.52;;;15.20;99.90;;;;;;5053270;28;20204;-56
2022/06/08 02:39:35;;;;;;;14.75;2.00;;;15.20;99.90;;;;;;5052928;28;20183;-56
2022/06/08 02:42:07;;;;;;;6.68;1.77;;;15.20;99.90;;;;;;5052589;28;20213;-56
2022/06/08 02:44:34;;;;;;;13.95;2.13;;;15.20;99.90;;;;;;5052946;28;20204;-55
2022/06/08 02:47:16;;;;;;;8.18;1.92;;;15.20;99.90;;;;;;5052733;28;20196;-56
2022/06/08 02:49:42;;;;;;;9.77;2.20;;;15.20;99.90;;;;;;5052422;28;20346;-56
2022/06/08 02:52:21;;;;;;;12.25;2.10;;;15.20;99.90;;;;;;5044551;28;20173;-56
2022/06/08 02:54:48;;;;;;;16.40;2.45;;;15.10;99.90;;;;;;5034975;28;20179;-55
2022/06/08 02:57:26;;;;;;;15.18;2.80;;;15.10;99.90;;;;;;5052365;28;20200;-56
2022/06/08 03:00:05;;;;;;;12.93;2.47;;;15.10;99.90;;;;;;5052812;28;20608;-55
2022/06/08 03:02:57;;;;;;;15.52;2.97;;;15.00;99.90;;;;;;5055157;28;20700;-55
2022/06/08 03:05:33;;;;;;;19.48;2.72;;;15.00;99.90;;;;;;5064134;28;20630;-55
2022/06/08 03:08:07;;;;;;;18.98;3.03;;;15.00;99.90;;;;;;5071662;28;20175;-55
2022/06/08 03:10:36;;;;;;;19.42;2.97;;;14.90;99.90;;;;;;5072170;28;20176;-55
2022/06/08 03:13:22;;;;;;;17.35;2.67;;;14.90;99.90;;;;;;5068665;28;20177;-55
2022/06/08 03:15:57;;;;;;;20.95;2.80;;;14.90;99.90;;;;;;5052059;28;20189;-55
2022/06/08 03:18:23;;;;;;;21.45;2.80;;;14.90;99.90;;;;;;5052186;28;20193;-55
2022/06/08 03:20:49;;;;;;;18.92;2.67;;;14.90;99.90;;;;;;5051078;28;20162;-56
2022/06/08 03:23:14;;;;;;;15.30;2.70;;;14.90;99.90;;;;;;5051698;28;20174;-54
2022/06/08 03:25:40;;;;;;;16.90;2.92;;;14.80;99.90;;;;;;5051459;28;20640;-55
2022/06/08 03:28:06;;;;;;;17.02;2.67;;;14.80;99.90;;;;;;5016843;28;20177;-58
2022/06/08 03:30:32;;;;;;;18.60;2.67;;;14.90;99.90;;;;;;5051431;28;20185;-56
2022/06/08 03:32:58;;;;;;;13.55;2.45;;;12.80;99.90;;;;;;5052172;28;20670;-55
2022/06/08 03:35:24;;;;;;;12.38;2.47;;;14.90;99.90;;;;;;5051968;28;20184;-55
2022/06/08 03:37:49;;;;;;;16.20;2.55;;;15.00;99.90;;;;;;5051991;28;20646;-55
2022/06/08 03:40:16;;;;;;;12.70;1.98;;;15.10;99.90;;;;;;5052031;28;20532;-54
2022/06/08 03:42:42;;;;;;;22.40;2.70;;;15.00;99.90;;;;;;5051354;28;20209;-55
2022/06/08 03:45:09;;;;;;;21.48;2.40;;;15.10;99.90;;;;;;5051234;28;20240;-55
2022/06/08 03:47:45;;;;;;;17.15;2.63;;;15.10;99.90;;;;;;5051713;28;20547;-56
2022/06/08 03:50:17;;;;;;;15.90;2.47;;;15.10;99.90;;;;;;5051443;28;20184;-55
2022/06/08 03:52:48;;;;;;;12.63;2.00;;;15.10;99.90;;;;;;5051050;28;20184;-55
2022/06/08 03:55:17;;;;;;;15.95;2.28;;;15.00;99.90;;;;;;5051510;28;20174;-55
2022/06/08 03:57:45;;;;;;;13.98;2.60;;;15.10;99.90;;;;;;5051516;28;20179;-55
2022/06/08 04:00:12;;;;;;;12.77;2.08;;;15.10;99.90;;;;;;5051348;28;20181;-55
2022/06/08 04:02:39;;;;;;;10.70;1.80;;;15.10;99.90;;;;;;5051117;28;20223;-55
2022/06/08 04:05:05;;;;;;;4.47;1.17;;;15.00;99.90;;;;;;5051551;28;20654;-55
2022/06/08 04:07:32;;;;;;;6.28;0.95;;;14.90;99.90;;;;;;5051464;28;20177;-55
2022/06/08 04:09:58;;;;;;;5.53;1.10;;;14.90;99.90;;;;;;5051067;28;20234;-55
2022/06/08 04:12:24;;;;;;;9.32;1.20;;;14.70;99.90;;;;;;5049280;28;20177;-56
2022/06/08 04:14:50;;;;;;;6.25;0.98;;;14.50;99.90;;;;;;5071121;28;20222;-56
2022/06/08 04:17:16;;;;;;;6.78;1.10;;;14.70;99.90;;;;;;5070608;28;20173;-55
2022/06/08 04:19:42;;;;;;;4.70;1.08;;;14.60;99.90;;;;;;5070897;28;20160;-55
2022/06/08 04:22:07;;;;;;;11.80;1.67;;;14.60;99.90;;;;;;5050724;28;20208;-55
2022/06/08 04:24:34;;;;;;;5.53;1.20;;;;;;;;;;5050459;28;20747;-55
2022/06/08 04:26:59;;;;;;;7.80;1.42;;;14.50;99.90;;;;;;5050959;28;20181;-55
2022/06/08 04:29:25;;;;;;;6.72;1.10;;;14.50;99.90;;;;;;5050945;28;20230;-55
2022/06/08 04:31:50;;;;;;;6.18;0.90;;;14.50;99.90;;;;;;5050882;28;20706;-55
2022/06/08 04:34:17;;;;;;;4.25;0.85;;;14.40;99.90;;;;;;5051028;28;20260;-55
2022/06/08 04:36:43;;;;;;;8.35;1.10;;;14.40;99.90;;;;;;5050565;28;20207;-55
2022/06/08 04:39:12;;;;;;;5.25;1.00;;;14.30;99.90;;;;;;5050660;28;20212;-55
2022/06/08 04:41:38;;;;;;;7.03;1.15;;;14.40;99.90;;;;;;5043905;28;20692;-56
2022/06/08 04:44:04;;;;;;;7.25;0.90;;;14.40;99.90;;;;;;5031041;28;20220;-56
2022/06/08 04:46:30;;;;;;;10.43;1.17;;;14.40;99.90;;;;;;5030873;28;20222;-56
2022/06/08 04:48:56;;;;;;;11.45;1.52;;;14.40;99.90;;;;;;5030848;28;20170;-56
2022/06/08 04:51:22;;;;;;;12.52;1.25;;;14.40;99.90;;;;;;5046713;28;20599;-56
2022/06/08 04:53:48;;;;;;;10.80;1.33;;;;;;;;;;5050683;28;20634;-56
2022/06/08 04:56:15;;;;;;;7.40;1.00;;;14.10;99.90;;;;;;5050764;28;20181;-56
2022/06/08 04:58:41;;;;;;;6.85;1.08;;;14.30;99.90;;;;;;5050373;28;20177;-55
2022/06/08 05:01:07;;;;;;;8.48;0.90;;;14.50;99.90;;;;;;5050908;28;20234;-56
2022/06/08 05:03:33;;;;;;;12.30;1.30;;;14.40;99.90;;;;;;5050210;28;20177;-56
2022/06/08 05:06:00;;;;;;;7.03;1.05;;;14.50;99.90;;;;;;5050724;28;20169;-56
2022/06/08 05:08:26;;;;;;;5.65;1.02;;;14.50;99.90;;;;;;5050478;28;20173;-56
2022/06/08 05:10:53;;;;;;;12.25;1.27;;;14.80;99.90;;;;;;5050248;28;20165;-55
2022/06/08 05:13:21;;;;;;;8.60;1.20;;;14.50;99.90;;;;;;5049105;28;20201;-55
2022/06/08 05:15:49;;;;;;;9.30;0.90;;;14.70;99.90;;;;;;5050346;28;20264;-55
2022/06/08 05:18:16;;;;;;;9.40;1.30;;;14.60;99.90;;;;;;5070162;28;20168;-55
2022/06/08 05:20:44;;;;;;;5.85;0.80;;;14.60;99.90;;;;;;5067470;28;20180;-55
2022/06/08 05:23:15;;;;;;;7.63;1.00;;;14.70;99.90;;;;;;5045351;28;20236;-56
2022/06/08 05:25:42;;;;;;;7.45;1.20;;;14.80;99.90;;;;;;5039439;28;20251;-55
2022/06/08 05:28:09;;;;;;;5.97;1.17;;;14.80;99.90;;;;;;5047485;28;20176;-56
2022/06/08 05:30:36;;;;;;;5.65;0.93;;;15.00;99.90;;;;;;5050076;28;20184;-56
2022/06/08 05:33:03;;;;;;;5.82;0.70;;;15.00;99.90;;;;;;5053382;28;20298;-60
2022/06/08 05:35:29;;;;;;;9.60;1.00;;;15.10;99.90;;;;;;5054414;28;20184;-56
2022/06/08 05:37:54;;;;;;;4.60;0.90;;;15.10;99.90;;;;;;5054264;28;20177;-55
2022/06/08 05:40:21;;;;;;;8.15;1.33;;;15.20;99.90;;;;;;5053721;28;20177;-55
2022/06/08 05:42:48;;;;;;;8.57;1.20;;;15.30;99.90;;;;;;5041031;28;20240;-55
2022/06/08 05:45:21;;;;;;;11.25;1.15;;;15.40;99.90;;;;;;5053617;28;20207;-55
2022/06/08 05:47:47;;;;;;;4.43;0.80;;;15.60;99.90;;;;;;5054236;28;20327;-55
2022/06/08 05:50:14;;;;;;;7.68;1.20;;;15.50;99.90;;;;;;5054035;28;20703;-55
2022/06/08 05:52:40;;;;;;;7.93;0.90;;;15.50;99.90;;;;;;5053283;28;20185;-56
2022/06/08 05:55:06;;;;;;;7.10;1.30;;;15.60;99.90;;;;;;5053173;28;20257;-55
2022/06/08 05:57:32;;;;;;;3.70;0.82;;;15.60;99.90;;;;;;5053823;28;20165;-55
2022/06/08 05:59:58;;;;;;;9.25;1.27;;;15.70;99.90;;;;;;5053804;28;20559;-55
2022/06/08 06:02:24;;;;;;;3.95;0.90;;;15.70;99.90;;;;;;5053460;28;20209;-55
2022/06/08 06:04:50;;;;;;;6.90;1.00;;;15.70;99.90;;;;;;5053525;28;20169;-56
2022/06/08 06:07:16;;;;;;;12.50;1.30;;;15.70;99.90;;;;;;5053618;28;20181;-56
2022/06/08 06:09:43;;;;;;;7.68;0.80;;;15.70;99.90;;;;;;5052204;28;20685;-56
2022/06/08 06:12:09;;;;;;;7.93;1.27;;;15.70;99.90;;;;;;5052775;28;20526;-56
2022/06/08 06:14:36;;;;;;;8.63;1.30;;;15.60;99.90;;;;;;5035580;28;20177;-61
2022/06/08 06:17:02;;;;;;;9.25;1.30;;;15.60;99.90;;;;;;5053437;28;20174;-67
2022/06/08 06:19:28;;;;;;;9.30;1.50;;;15.70;99.90;;;;;;5053281;28;20201;-67
2022/06/08 06:21:53;;;;;;;4.57;0.95;;;15.90;99.90;;;;;;5053313;28;20712;-66
2022/06/08 06:24:19;;;;;;;3.40;0.90;;;15.70;99.90;;;;;;5053319;28;20261;-66
2022/06/08 06:26:45;;;;;;;6.93;1.25;;;15.30;99.90;;;;;;5034903;28;20256;-67
2022/06/08 06:29:11;;;;;;;7.97;1.30;;;15.60;99.90;;;;;;5073263;28;20251;-67
2022/06/08 06:31:44;;;;;;;9.15;1.20;;;15.50;99.90;;;;;;5073476;28;20699;-68
2022/06/08 06:34:15;;;;;;;11.43;1.40;;;16.00;99.90;;;;;;5054318;28;20204;-68
2022/06/08 06:36:41;;;;;;;5.25;1.05;;;15.60;99.90;;;;;;5053040;28;20161;-69
2022/06/08 06:39:07;;;;;;;10.98;1.60;;;15.60;99.90;;;;;;5052621;28;20543;-69
2022/06/08 06:41:34;;;;;;;9.80;1.25;;;15.50;99.90;;;;;;5052661;28;20228;-66
2022/06/08 06:44:00;;;;;;;12.00;1.50;;;15.70;99.90;;;;;;5050432;28;20248;-65
2022/06/08 06:46:26;;;;;;;9.30;1.60;;;15.70;99.90;;;;;;5052314;28;20220;-64
2022/06/08 06:48:52;;;;;;;4.80;1.05;;;15.60;99.90;;;;;;5067184;28;20176;-64
2022/06/08 06:51:18;;;;;;;11.32;1.75;;;15.60;99.90;;;;;;5072635;28;20272;-66
2022/06/08 06:53:44;;;;;;;9.48;1.38;;;15.50;99.90;;;;;;5054023;28;20177;-63
2022/06/08 06:56:10;;;;;;;7.93;1.60;;;15.50;99.90;;;;;;5052267;28;20674;-64
2022/06/08 06:58:36;;;;;;;10.07;1.60;;;15.50;99.90;;;;;;5052324;28;20653;-64
2022/06/08 07:01:04;;;;;;;16.08;1.50;;;15.60;99.90;;;;;;5052090;28;20169;-64
2022/06/08 07:03:30;;;;;;;13.25;1.58;;;15.70;99.90;;;;;;5053171;28;20181;-62
2022/06/08 07:05:56;;;;;;;13.18;1.30;;;15.90;99.90;;;;;;5052447;28;20473;-63
2022/06/08 07:08:22;;;;;;;10.38;1.70;;;15.80;99.90;;;;;;5064692;28;20182;-65
2022/06/08 07:13:32;;;;;;;12.93;1.50;;;16.10;99.90;;;;;;5072495;28;20171;-67
2022/06/08 07:15:58;;;;;;;12.30;1.88;;;16.20;99.90;;;;;;5052965;28;20256;-62
2022/06/08 07:18:24;;;;;;;10.82;1.45;;;16.40;99.90;;;;;;5051936;28;20624;-67
2022/06/08 07:20:49;;;;;;;14.18;1.50;;;16.40;99.90;;;;;;5067422;28;20626;-67
2022/06/08 07:23:15;;;;;;;16.17;1.75;;;16.40;99.90;;;;;;5070143;28;20584;-67
2022/06/08 07:25:41;;;;;;;16.20;2.30;;;16.40;99.90;;;;;;5051552;28;20173;-67
2022/06/08 07:28:06;;;;;;;10.68;1.65;;;16.60;99.90;;;;;;5068382;28;20185;-68
2022/06/08 07:30:32;;;;;;;12.10;1.75;;;16.50;99.90;;;;;;5052125;28;20180;-67
2022/06/08 07:32:58;;;;;;;10.45;2.10;;;16.60;99.90;;;;;;5051942;28;20630;-67
2022/06/08 07:35:24;;;;;;;11.98;1.80;;;16.70;99.90;;;;;;5051424;28;20178;-66
2022/06/08 07:37:50;;;;;;;11.23;1.65;;;16.70;99.90;;;;;;5051640;28;20224;-67
2022/06/08 07:40:16;;;;;;;12.57;1.85;;;16.70;99.90;;;;;;5051750;28;20195;-67
2022/06/08 07:42:42;;;;;;;15.68;1.42;;;16.90;99.90;;;;;;5051224;28;20208;-66
2022/06/08 07:45:10;;;;;;;6.80;1.23;;;16.80;99.90;;;;;;5051427;28;20703;-65
2022/06/08 07:49:36;;;;;;;10.02;1.52;;;16.80;99.90;;;;;;5048001;28;20824;-66
2022/06/08 07:50:21;;;;;;;12.80;1.65;;;17.00;99.90;;;;;;5050085;28;20173;-65
2022/06/08 07:52:47;;;;;;;11.82;1.70;;;17.00;99.90;;;;;;5050560;28;20662;-64
2022/06/08 07:55:13;;;;;;;12.40;2.05;;;17.10;99.90;;;;;;5050457;28;20180;-64
2022/06/08 07:57:38;;;;;;;10.88;1.58;;;17.20;99.90;;;;;;5050880;28;20188;-65
2022/06/08 08:00:05;;;;;;;7.88;1.48;;;17.00;99.90;;;;;;5051305;28;20176;-59
2022/06/08 08:02:31;;;;;;;7.72;1.48;;;17.10;99.90;;;;;;5051040;28;20224;-58
2022/06/08 08:04:57;;;;;;;6.00;1.38;;;17.20;99.90;;;;;;5050699;28;20170;-65
2022/06/08 08:07:22;;;;;;;7.97;1.67;;;17.10;99.90;;;;;;5051650;28;20264;-67
2022/06/08 08:09:49;;;;;;;11.48;1.25;;;17.40;99.90;;;;;;5051135;28;20576;-67
2022/06/08 08:12:15;;;;;;;15.35;1.50;;;17.40;99.90;;;;;;5051500;28;20219;-67
2022/06/08 08:14:41;;;;;;;11.68;1.52;;;17.40;99.90;;;;;;5050577;28;20171;-58
2022/06/08 08:17:06;;;;;;;9.60;1.90;;;17.30;99.90;;;;;;5050509;28;20212;-59
2022/06/08 08:19:32;;;;;;;9.55;1.35;;;17.50;99.90;;;;;;5050981;28;20169;-58
2022/06/08 08:21:58;;;;;;;8.13;1.80;;;17.50;99.90;;;;;;5049920;28;20213;-59
2022/06/08 08:24:24;;;;;;;6.28;1.20;;;17.40;99.90;;;;;;5050631;28;20170;-59
2022/06/08 08:26:50;;;;;;;9.43;1.70;;;17.50;99.90;;;;;;5050028;28;20173;-59
2022/06/08 08:29:17;;;;;;;11.25;1.90;;;17.70;99.90;;;;;;5047145;28;20193;-59
2022/06/08 08:31:44;;;;;;;12.10;1.75;;;17.80;99.90;;;;;;5050581;28;20231;-59
2022/06/08 08:34:11;;;;;;;10.95;1.60;;;17.90;99.90;;;;;;5051285;28;20255;-59
2022/06/08 08:36:37;;;;;;;14.93;2.35;;;17.70;99.90;;;;;;5051072;28;20223;-59
2022/06/08 08:39:04;;;;;;;9.73;1.60;;;17.60;99.90;;;;;;5051489;28;20173;-59
2022/06/08 08:44:32;;;;;;;16.15;2.10;;;17.80;99.90;;;;;;5051250;28;20188;-59
2022/06/08 08:47:35;;;;;;;14.45;1.60;;;18.00;99.90;;;;;;5029444;28;20257;-58
2022/06/08 08:50:23;;;;;;;12.18;1.60;;;18.00;99.90;;;;;;5021729;28;20198;-67
2022/06/08 08:53:01;;;;;;;10.90;1.80;;;18.50;99.90;;;;;;5027348;28;20221;-66
2022/06/08 08:55:34;;;;;;;10.57;1.33;;;18.20;99.90;;;;;;5015713;28;20178;-66
2022/06/08 08:58:22;;;;;;;16.15;1.95;;;18.50;99.90;;;;;;5029994;28;20632;-66
2022/06/08 09:01:00;;;;;;;12.05;1.80;;;18.90;99.90;;;;;;5030058;28;20644;-66
2022/06/08 09:03:39;;;;;;;18.17;2.38;;;18.70;99.90;;;;;;5028222;28;20221;-66
2022/06/08 09:06:23;;;;;;;11.43;2.28;;;18.90;99.90;;;;;;5026357;28;20174;-66
2022/06/08 09:08:52;;;;;;;17.55;1.95;;;18.40;99.90;;;;;;5029876;28;20184;-66
2022/06/08 09:11:29;;;;;;;16.45;2.35;;;18.40;99.90;;;;;;5030398;28;20178;-65
2022/06/08 09:13:58;;;;;;;15.95;2.30;;;18.40;99.90;;;;;;5010582;28;20659;-67
2022/06/08 09:16:35;;;;;;;11.10;1.75;;;19.30;99.90;;;;;;5012092;28;20637;-67
2022/06/08 09:19:21;;;;;;;8.75;1.50;;;19.20;99.90;;;;;;5030592;28;20189;-67
2022/06/08 09:21:51;;;;;;;9.25;1.95;;;19.30;99.90;;;;;;5030266;28;20201;-67
2022/06/08 09:24:21;;;;;;;18.67;2.22;;;19.60;99.90;;;;;;5030553;28;20221;-68
2022/06/08 09:26:47;;;;;;;9.27;1.50;;;19.20;99.90;;;;;;5030786;28;20201;-68
2022/06/08 09:29:20;;;;;;;13.07;1.50;;;19.30;99.90;;;;;;5030503;28;20598;-67
2022/06/08 09:31:48;;;;;;;10.40;1.73;;;19.60;99.90;;;;;;5030441;28;20193;-66
2022/06/08 09:34:22;;;;;;;9.07;1.45;;;19.40;99.90;;;;;;5030561;28;20166;-67
2022/06/08 09:37:04;;;;;;;8.20;1.33;;;19.70;99.90;;;;;;5030175;28;20349;-66
2022/06/08 09:39:30;;;;;;;16.08;1.63;;;19.70;99.90;;;;;;5030598;28;20178;-66
2022/06/08 09:41:55;;;;;;;14.13;1.75;;;19.70;99.90;;;;;;5030496;28;20251;-67
2022/06/08 09:44:27;;;;;;;12.50;1.83;;;19.60;99.90;;;;;;5030418;28;20289;-64
2022/06/08 09:52:58;;;;;;;12.30;1.83;;;19.90;99.90;;;;;;5050463;28;20266;-67
2022/06/08 09:55:40;;;;;;;10.93;1.33;;;19.90;99.90;;;;;;5049891;28;20177;-66
2022/06/08 09:58:24;;;;;;;7.28;1.38;;;19.70;99.90;;;;;;5050196;28;20299;-66
2022/06/08 10:01:17;;;;;;;11.25;1.92;;;19.50;99.90;;;;;;5036163;28;20260;-66
2022/06/08 10:03:52;;;;;;;16.48;2.00;;;19.90;99.90;;;;;;5032148;28;20586;-66
2022/06/08 10:06:45;;;;;;;14.90;2.58;;;20.10;99.90;;;;;;5037678;28;20331;-66
2022/06/08 10:09:48;;;;;;;12.88;2.03;;;20.20;99.90;;;;;;5030289;28;20174;-65
2022/06/08 10:12:23;;;;;;;11.80;1.65;;;19.70;99.90;;;;;;5030213;28;20181;-67
2022/06/08 10:14:51;;;;;;;13.07;1.83;;;20.30;99.90;;;;;;5030124;28;20161;-66
2022/06/08 10:17:23;;;;;;;11.05;1.65;;;20.40;99.90;;;;;;5030153;28;20178;-66
2022/06/08 10:20:06;;;;;;;12.63;1.60;;;19.60;99.90;;;;;;5033545;28;20637;-66
2022/06/08 10:22:42;;;;;;;11.63;1.95;;;19.70;99.90;;;;;;5033577;28;20344;-66
2022/06/08 10:25:19;;;;;;;14.68;2.13;;;20.10;99.90;;;;;;5033560;28;20173;-66
2022/06/08 10:28:07;;;;;;;12.07;1.50;;;20.20;99.90;;;;;;5033634;28;20198;-67
2022/06/08 10:30:54;;;;;;;9.30;1.52;;;19.80;99.90;;;;;;5033510;28;20173;-66
2022/06/08 10:33:45;;;;;;;17.67;1.90;;;19.80;99.90;;;;;;5033341;28;20319;-66
2022/06/08 10:36:11;;;;;;;12.32;2.42;;;20.00;99.90;;;;;;5027421;28;20185;-65
2022/06/08 10:38:42;;;;;;;10.70;2.03;;;20.30;99.90;;;;;;5033225;28;20227;-66
2022/06/08 10:43:55;;;;;;;14.70;2.13;;;20.30;99.90;;;;;;5032789;28;20201;-66
2022/06/08 10:46:45;;;;;;;15.75;2.45;;;20.50;99.90;;;;;;5044263;28;20505;-66
2022/06/08 10:49:36;;;;;;;8.32;1.50;;;20.90;99.90;;;;;;5032607;28;20170;-66
2022/06/08 10:52:19;;;;;;;11.20;1.98;;;20.90;99.90;;;;;;5050071;28;20188;-66
2022/06/08 10:55:14;;;;;;;15.25;2.15;;;20.60;99.90;;;;;;5052779;28;20734;-66
2022/06/08 10:57:51;;;;;;;21.13;2.58;;;20.90;99.90;;;;;;5052466;28;20165;-66
2022/06/08 11:00:20;;;;;;;14.70;2.30;;;21.20;99.90;;;;;;5052807;28;20200;-66
2022/06/08 11:03:04;;;;;;;14.63;3.28;;;21.40;99.90;;;;;;5052714;28;20212;-65
2022/06/08 11:05:32;;;;;;;17.52;2.58;;;21.00;99.90;;;;;;5052369;28;20201;-65
2022/06/08 11:08:06;;;;;;;12.23;2.13;;;21.00;99.90;;;;;;5049118;28;20170;-65
2022/06/08 11:10:44;;;;;;;20.58;2.90;;;21.30;99.90;;;;;;5052621;28;20195;-65
2022/06/08 11:13:25;;;;;;;13.20;2.38;;;21.10;99.90;;;;;;5037859;28;20726;-65
2022/06/08 11:15:55;;;;;;;15.93;2.60;;;21.00;99.90;;;;;;5052258;28;20195;-65
2022/06/08 11:18:35;;;;;;;11.88;2.33;;;21.10;99.90;;;;;;5052395;28;20174;-59
2022/06/08 11:21:13;;;;;;;11.32;2.03;;;21.30;99.90;;;;;;5051783;28;20201;-58
2022/06/08 11:24:09;;;;;;;19.35;2.95;;;20.90;99.90;;;;;;5032401;28;20250;-57
2022/06/08 11:26:38;;;;;;;10.18;1.90;;;21.50;99.90;;;;;;5032397;28;20170;-58
2022/06/08 11:29:18;;;;;;;14.70;2.85;;;21.60;99.90;;;;;;5047328;28;20193;-58
2022/06/08 11:31:44;;;;;;;13.77;2.58;;;21.40;99.90;;;;;;5052124;28;20185;-59
2022/06/08 11:34:50;;;;;;;18.08;2.88;;;21.40;99.90;;;;;;5052092;28;20169;-58
2022/06/08 11:37:39;;;;;;;16.88;2.80;;;21.30;99.90;;;;;;5051922;28;20208;-58
2022/06/08 11:40:28;;;;;;;23.67;3.08;;;21.40;99.90;;;;;;5051680;28;20178;-59
2022/06/08 11:42:56;;;;;;;19.73;3.47;;;21.80;99.90;;;;;;5051804;28;20266;-58
2022/06/08 11:45:24;;;;;;;19.40;2.83;;;21.60;99.90;;;;;;5052042;28;20235;-58
2022/06/08 11:47:52;;;;;;;20.80;3.05;;;21.80;99.90;;;;;;5051998;28;20268;-58
2022/06/08 11:50:31;;;;;;;21.42;2.75;;;22.20;99.90;;;;;;5051095;28;20173;-58
2022/06/08 11:53:04;;;;;;;15.82;2.45;;;22.40;99.90;;;;;;5049859;28;20187;-58
2022/06/08 11:55:35;;;;;;;24.02;3.20;;;22.30;99.90;;;;;;5031773;28;20173;-58
2022/06/08 11:58:16;;;;;;;17.40;3.42;;;22.10;99.90;;;;;;5050510;28;20208;-59
2022/06/08 12:00:42;;;;;;;16.20;2.50;;;21.90;99.90;;;;;;5050143;28;20177;-59
2022/06/08 12:03:17;;;;;;;17.90;2.85;;;22.10;99.90;;;;;;5050740;28;20216;-59
2022/06/08 12:05:48;;;;;;;13.85;2.63;;;22.50;99.90;;;;;;5051134;28;20169;-60
2022/06/08 12:08:30;;;;;;;13.60;2.25;;;22.70;99.90;;;;;;5051478;28;20181;-61
2022/06/08 12:10:59;;;;;;;15.57;2.92;;;22.60;99.90;;;;;;5051560;28;20624;-59
2022/06/08 12:13:24;;;;;;;20.13;3.17;;;21.70;99.90;;;;;;5033738;28;20244;-59
2022/06/08 12:15:57;;;;;;;21.15;3.08;;;21.10;99.90;;;;;;5051327;28;20269;-59
2022/06/08 12:18:44;;;;;;;18.70;3.25;;;20.90;99.90;;;;;;5048892;28;20178;-59
2022/06/08 12:21:21;;;;;;;15.80;2.95;;;21.30;99.90;;;;;;5041759;28;20188;-59
2022/06/08 12:23:55;;;;;;;16.08;2.90;;;21.70;99.90;;;;;;5051272;28;20247;-59
2022/06/08 12:26:23;;;;;;;15.48;2.67;;;22.20;99.90;;;;;;5051073;28;20171;-59
2022/06/08 12:29:00;;;;;;;16.38;3.10;;;22.50;99.90;;;;;;5050839;28;20185;-59
2022/06/08 12:31:33;;;;;;;20.80;2.70;;;23.30;99.90;;;;;;5051230;28;20257;-59
2022/06/08 12:34:44;;;;;;;21.42;2.85;;;22.50;99.90;;;;;;5050812;28;20242;-60
2022/06/08 12:37:28;;;;;;;16.48;3.13;;;22.60;99.90;;;;;;5047732;28;20193;-59
2022/06/08 12:40:17;;;;;;;20.58;3.13;;;21.90;99.90;;;;;;5050727;28;20177;-59
2022/06/08 12:43:12;;;;;;;21.23;3.33;;;21.80;99.90;;;;;;5041216;28;20282;-60
2022/06/08 12:45:45;;;;;;;17.52;3.40;;;22.10;99.90;;;;;;5048798;28;20703;-60
2022/06/08 12:48:44;;;;;;;19.98;3.60;;;22.40;99.90;;;;;;5050611;28;20638;-60
2022/06/08 12:51:31;;;;;;;22.63;3.30;;;22.60;99.90;;;;;;5050590;28;20639;-57
2022/06/08 12:53:59;;;;;;;21.73;2.70;;;23.10;99.90;;;;;;5050613;28;20624;-59
2022/06/08 12:56:25;;;;;;;23.05;3.83;;;22.70;99.90;;;;;;5050709;28;20181;-60
2022/06/08 12:58:52;;;;;;;19.52;4.00;;;23.00;99.90;;;;;;5050949;28;20251;-58
2022/06/08 13:01:20;;;;;;;12.13;2.53;;;23.10;99.90;;;;;;5032612;28;20177;-59
2022/06/08 13:03:46;;;;;;;18.02;2.92;;;23.40;99.90;;;;;;5050864;28;20173;-59
2022/06/08 13:06:12;;;;;;;14.45;2.95;;;23.50;99.90;;;;;;5050635;28;20662;-58
2022/06/08 13:08:38;;;;;;;16.80;3.33;;;23.60;99.90;;;;;;5032557;28;20181;-59
2022/06/08 13:11:10;;;;;;;13.65;2.55;;;24.40;99.90;;;;;;5042850;28;20198;-59
2022/06/08 13:13:36;;;;;;;22.55;3.40;;;23.90;99.90;;;;;;5030666;28;20182;-60
2022/06/08 13:16:12;;;;;;;13.07;2.97;;;23.70;99.90;;;;;;5030912;28;20672;-59
2022/06/08 13:18:38;;;;;;;13.82;2.38;;;23.20;99.90;;;;;;5030644;28;20174;-59
2022/06/08 13:21:07;;;;;;;12.75;2.70;;;23.60;99.90;;;;;;5030542;28;20166;-59
2022/06/08 13:23:33;;;;;;;17.30;2.92;;;24.20;99.90;;;;;;5030543;28;20612;-58
2022/06/08 13:26:00;;;;;;;14.32;2.33;;;24.10;99.90;;;;;;5030695;28;20177;-58